Time;durP1;ratioP1;P1;durP2;ratioP2;P2;SDS_P1;SDS_P2;PMS_P1;PMS_P2;Temp;Humidity;BMP_temperature;BMP_pressure;BME280_temperature;BME280_humidity;BME280_pressure;Samples;Min_cycle;Max_cycle;Signal;HPM_P1;HPM_P2
2022/12/20 00:01:36;;;;;;;50.17;29.20;;;3.80;99.90;;;;;;5019971;28;20590;-71
2022/12/20 00:04:04;;;;;;;48.60;27.80;;;3.80;99.90;;;;;;5013787;28;20050;-71
2022/12/20 00:06:34;;;;;;;53.53;29.77;;;4.00;99.90;;;;;;5025834;28;20049;-72
2022/12/20 00:09:04;;;;;;;49.65;30.08;;;3.80;99.90;;;;;;5033531;28;20111;-69
2022/12/20 00:11:32;;;;;;;57.35;30.13;;;3.90;99.90;;;;;;5033305;28;20067;-71
2022/12/20 00:13:59;;;;;;;52.17;30.73;;;3.90;99.90;;;;;;5033427;28;20433;-70
2022/12/20 00:16:28;;;;;;;54.42;30.95;;;3.90;99.90;;;;;;5027905;28;20042;-70
2022/12/20 00:19:01;;;;;;;59.97;30.80;;;4.00;99.90;;;;;;5013567;28;20048;-70
2022/12/20 00:21:29;;;;;;;56.15;31.85;;;3.90;99.90;;;;;;5024750;28;20405;-70
2022/12/20 00:23:57;;;;;;;55.40;32.67;;;3.90;99.90;;;;;;5033085;28;20449;-70
2022/12/20 00:26:28;;;;;;;55.08;32.40;;;4.00;99.90;;;;;;5032904;28;20056;-69
2022/12/20 00:28:55;;;;;;;;;;;3.90;99.90;;;;;;5033525;28;20116;-68
2022/12/20 00:31:24;;;;;;;61.08;34.67;;;3.90;99.90;;;;;;5029033;28;19929;-71
2022/12/20 00:33:53;;;;;;;63.67;33.78;;;3.90;99.90;;;;;;5013476;28;20402;-69
2022/12/20 00:36:22;;;;;;;66.95;35.33;;;4.00;99.90;;;;;;5022143;28;20408;-69
2022/12/20 00:38:52;;;;;;;57.47;33.33;;;4.00;99.90;;;;;;5032859;28;20123;-70
2022/12/20 00:41:26;;;;;;;54.20;30.77;;;3.80;99.90;;;;;;5032719;28;20396;-70
2022/12/20 00:43:55;;;;;;;46.60;28.65;;;3.90;99.90;;;;;;5032751;28;20049;-71
2022/12/20 00:46:24;;;;;;;49.60;26.77;;;4.00;99.90;;;;;;5026570;28;20473;-70
2022/12/20 00:48:54;;;;;;;44.42;26.42;;;3.90;99.90;;;;;;5013045;28;20049;-70
2022/12/20 00:51:24;;;;;;;42.28;25.73;;;3.90;99.90;;;;;;5021595;28;20761;-70
2022/12/20 00:53:53;;;;;;;43.17;24.25;;;3.90;99.90;;;;;;5031579;28;20037;-69
2022/12/20 00:56:20;;;;;;;42.10;23.92;;;4.00;99.90;;;;;;5032114;28;20048;-70
2022/12/20 00:58:49;;;;;;;40.40;23.70;;;4.00;99.90;;;;;;5031423;28;20532;-70
2022/12/20 01:01:22;;;;;;;37.65;21.70;;;4.00;99.90;;;;;;5029325;28;20382;-69
2022/12/20 01:03:50;;;;;;;40.55;22.83;;;4.00;99.90;;;;;;5007523;28;20077;-69
2022/12/20 01:06:19;;;;;;;39.90;22.65;;;3.90;99.90;;;;;;5019730;28;20033;-69
2022/12/20 01:08:47;;;;;;;37.72;22.80;;;3.90;99.90;;;;;;5032463;28;20033;-70
2022/12/20 01:11:29;;;;;;;32.70;21.27;;;3.80;99.90;;;;;;5032278;28;20492;-69
2022/12/20 01:13:59;;;;;;;35.80;21.92;;;3.80;99.90;;;;;;5032152;28;20034;-69
2022/12/20 01:16:42;;;;;;;37.33;22.05;;;3.80;99.90;;;;;;5021476;28;20058;-69
2022/12/20 01:19:15;;;;;;;39.88;23.15;;;3.70;99.90;;;;;;5012721;28;20108;-69
2022/12/20 01:21:43;;;;;;;41.42;22.50;;;3.70;99.90;;;;;;5022139;28;20037;-69
2022/12/20 01:24:16;;;;;;;37.65;21.65;;;3.70;99.90;;;;;;5032050;28;20041;-70
2022/12/20 01:26:45;;;;;;;36.80;22.13;;;3.70;99.90;;;;;;5032172;28;20033;-69
2022/12/20 01:29:12;;;;;;;36.92;21.60;;;3.80;99.90;;;;;;5032246;28;20549;-70
2022/12/20 01:31:40;;;;;;;39.22;21.05;;;3.80;99.90;;;;;;5025486;28;20515;-70
2022/12/20 01:34:09;;;;;;;35.95;21.35;;;3.90;99.90;;;;;;5012540;28;20046;-69
2022/12/20 01:36:38;;;;;;;36.35;21.65;;;3.90;99.90;;;;;;5020223;28;20050;-70
2022/12/20 01:39:08;;;;;;;38.22;21.20;;;4.00;99.90;;;;;;5031206;28;20056;-69
2022/12/20 01:41:36;;;;;;;38.38;20.88;;;3.90;99.90;;;;;;5032370;28;20037;-69
2022/12/20 01:44:16;;;;;;;36.90;21.52;;;3.90;99.90;;;;;;5032483;28;20091;-70
2022/12/20 01:46:45;;;;;;;34.72;21.20;;;3.90;99.90;;;;;;5032315;28;20042;-70
2022/12/20 01:49:18;;;;;;;33.75;20.90;;;3.90;99.90;;;;;;5032232;28;20456;-69
2022/12/20 01:51:48;;;;;;;36.17;20.55;;;4.00;99.90;;;;;;5032109;28;20052;-69
2022/12/20 01:54:25;;;;;;;32.65;19.70;;;3.90;99.90;;;;;;5032110;28;20052;-69
2022/12/20 01:56:58;;;;;;;35.17;20.65;;;3.70;99.90;;;;;;5032021;28;20073;-69
2022/12/20 01:59:27;;;;;;;33.08;20.63;;;3.80;99.90;;;;;;5032042;28;20061;-71
2022/12/20 02:01:58;;;;;;;39.33;21.25;;;3.80;99.90;;;;;;5032433;28;20469;-69
2022/12/20 02:04:26;;;;;;;37.92;20.35;;;3.80;99.90;;;;;;5031908;28;20046;-69
2022/12/20 02:06:53;;;;;;;37.40;20.90;;;3.70;99.90;;;;;;5032129;28;20038;-69
2022/12/20 02:09:22;;;;;;;41.08;21.95;;;3.60;99.90;;;;;;5032469;28;20049;-69
2022/12/20 02:12:35;;;;;;;41.17;23.73;;;3.60;99.90;;;;;;5035744;28;20411;-70
2022/12/20 02:15:23;;;;;;;35.25;22.30;;;3.50;99.90;;;;;;4936245;29;20056;-71
2022/12/20 02:18:02;;;;;;;39.10;22.27;;;3.60;99.90;;;;;;5030423;28;20112;-71
2022/12/20 02:20:49;;;;;;;39.93;23.07;;;3.70;99.90;;;;;;5035520;28;20049;-70
2022/12/20 02:23:44;;;;;;;44.15;24.13;;;3.70;99.90;;;;;;5035380;28;20041;-70
2022/12/20 02:26:15;;;;;;;44.25;22.05;;;3.70;99.90;;;;;;5035504;28;20056;-69
2022/12/20 02:29:19;;;;;;;39.63;23.17;;;3.60;99.90;;;;;;5035818;28;20172;-69
2022/12/20 02:32:13;;;;;;;38.67;22.98;;;3.60;99.90;;;;;;5035714;28;20037;-71
2022/12/20 02:34:41;;;;;;;38.00;22.58;;;3.70;99.90;;;;;;5035296;28;20038;-68
2022/12/20 02:37:09;;;;;;;32.88;21.13;;;3.70;99.90;;;;;;5035589;28;20041;-71
2022/12/20 02:39:39;;;;;;;40.65;23.02;;;3.90;99.90;;;;;;5035335;28;20045;-70
2022/12/20 02:42:10;;;;;;;38.65;22.90;;;4.00;99.90;;;;;;5035457;28;20374;-71
2022/12/20 02:48:03;;;;;;;39.85;20.83;;;4.10;99.90;;;;;;5035252;28;20045;-70
2022/12/20 02:50:50;;;;;;;36.70;21.23;;;4.10;99.90;;;;;;5034896;28;20041;-70
2022/12/20 02:53:18;;;;;;;37.97;21.65;;;4.10;99.90;;;;;;5034758;28;20067;-70
2022/12/20 02:56:02;;;;;;;34.22;21.85;;;4.20;99.90;;;;;;5035198;28;20041;-70
2022/12/20 02:58:44;;;;;;;37.63;21.50;;;4.10;99.90;;;;;;5013909;28;20058;-69
2022/12/20 03:01:27;;;;;;;38.42;20.95;;;4.20;99.90;;;;;;5015262;28;20042;-69
2022/12/20 03:03:57;;;;;;;36.15;20.85;;;4.20;99.90;;;;;;5014944;28;20046;-69
2022/12/20 03:06:25;;;;;;;34.22;19.75;;;4.20;99.90;;;;;;5014832;28;20054;-70
2022/12/20 03:08:52;;;;;;;36.05;20.83;;;4.10;99.90;;;;;;5014532;28;20042;-69
2022/12/20 03:11:20;;;;;;;32.88;20.15;;;3.90;99.90;;;;;;5014999;28;20391;-69
2022/12/20 03:13:52;;;;;;;38.90;22.33;;;3.90;99.90;;;;;;5015133;28;20124;-70
2022/12/20 03:16:25;;;;;;;36.30;21.15;;;3.80;99.90;;;;;;4997676;28;20038;-70
2022/12/20 03:18:57;;;;;;;40.40;21.67;;;3.80;99.90;;;;;;4998408;28;20072;-69
2022/12/20 03:21:26;;;;;;;34.70;20.73;;;3.90;99.90;;;;;;4996827;28;20061;-69
2022/12/20 03:23:53;;;;;;;33.05;19.90;;;3.90;99.90;;;;;;5014744;28;20062;-69
2022/12/20 03:26:21;;;;;;;35.03;20.45;;;4.00;99.90;;;;;;5014710;28;20100;-69
2022/12/20 03:28:48;;;;;;;32.55;19.70;;;4.10;99.90;;;;;;5014838;28;20497;-70
2022/12/20 03:31:15;;;;;;;38.08;21.25;;;4.00;99.90;;;;;;5014389;28;20053;-69
2022/12/20 03:33:43;;;;;;;33.38;20.45;;;4.00;99.90;;;;;;5013839;28;20436;-68
2022/12/20 03:36:10;;;;;;;32.83;20.77;;;4.00;99.90;;;;;;5014562;28;20069;-69
2022/12/20 03:38:38;;;;;;;32.88;20.08;;;3.90;99.90;;;;;;5014520;28;20108;-69
2022/12/20 03:41:06;;;;;;;32.40;20.67;;;4.00;99.90;;;;;;5014414;28;20041;-69
2022/12/20 03:43:33;;;;;;;35.05;20.38;;;4.00;99.90;;;;;;5014499;28;20038;-69
2022/12/20 03:46:01;;;;;;;34.85;20.95;;;4.00;99.90;;;;;;5013920;28;20069;-69
2022/12/20 03:48:28;;;;;;;35.00;21.35;;;4.00;99.90;;;;;;5014463;28;20509;-69
2022/12/20 03:50:55;;;;;;;34.58;21.23;;;4.00;99.90;;;;;;5014662;28;20045;-69
2022/12/20 03:53:22;;;;;;;32.45;19.60;;;4.00;99.90;;;;;;5014256;28;20042;-69
2022/12/20 03:55:50;;;;;;;38.90;21.02;;;4.00;99.90;;;;;;5014027;28;20052;-69
2022/12/20 03:58:17;;;;;;;33.88;19.63;;;4.00;99.90;;;;;;5018985;28;20053;-69
2022/12/20 04:00:44;;;;;;;33.13;20.23;;;4.10;99.90;;;;;;5033616;28;20049;-68
2022/12/20 04:03:12;;;;;;;34.83;19.58;;;4.10;99.90;;;;;;5033829;28;20037;-69
2022/12/20 04:05:39;;;;;;;32.78;19.20;;;4.10;99.90;;;;;;5033605;28;20523;-70
2022/12/20 04:08:06;;;;;;;37.88;21.55;;;4.10;99.90;;;;;;5033519;28;20065;-69
2022/12/20 04:11:14;;;;;;;34.78;20.67;;;4.00;99.90;;;;;;5033925;28;20405;-69
2022/12/20 04:13:21;;;;;;;33.75;20.83;;;4.10;99.90;;;;;;5031781;28;20612;-69
2022/12/20 04:15:49;;;;;;;34.10;18.77;;;4.00;99.90;;;;;;5033688;28;20370;-68
2022/12/20 04:18:22;;;;;;;30.83;19.05;;;4.00;99.90;;;;;;5033409;28;20041;-70
2022/12/20 04:20:53;;;;;;;32.45;19.63;;;4.00;99.90;;;;;;5033288;28;20107;-70
2022/12/20 04:23:21;;;;;;;32.00;19.10;;;3.80;99.90;;;;;;5033148;28;20060;-69
2022/12/20 04:25:48;;;;;;;33.03;19.40;;;3.80;99.90;;;;;;5033384;28;20038;-69
2022/12/20 04:28:15;;;;;;;33.03;19.88;;;3.80;99.90;;;;;;5033228;28;20048;-69
2022/12/20 04:30:43;;;;;;;34.38;20.42;;;3.90;99.90;;;;;;5031890;28;20560;-69
2022/12/20 04:33:10;;;;;;;27.63;18.58;;;3.90;99.90;;;;;;5032993;28;20057;-69
2022/12/20 04:35:37;;;;;;;34.53;20.25;;;3.80;99.90;;;;;;5033453;28;20046;-70
2022/12/20 04:38:05;;;;;;;31.25;18.55;;;3.80;99.90;;;;;;5032915;28;20479;-69
2022/12/20 04:40:32;;;;;;;29.83;19.77;;;3.70;99.90;;;;;;5032777;28;20044;-69
2022/12/20 04:43:00;;;;;;;35.10;20.23;;;3.70;99.90;;;;;;5032911;28;20045;-71
2022/12/20 04:45:27;;;;;;;34.63;20.02;;;3.60;99.90;;;;;;5033102;28;20401;-69
2022/12/20 04:47:54;;;;;;;33.00;20.00;;;3.70;99.90;;;;;;5032863;28;20056;-70
2022/12/20 04:50:22;;;;;;;33.85;19.33;;;3.70;99.90;;;;;;5033067;28;20047;-68
2022/12/20 04:55:39;;;;;;;35.70;19.98;;;3.80;99.90;;;;;;5033093;28;20093;-69
2022/12/20 04:58:07;;;;;;;36.40;20.60;;;3.90;99.90;;;;;;5032246;28;20046;-68
2022/12/20 05:00:35;;;;;;;36.50;21.50;;;3.90;99.90;;;;;;5032709;28;20049;-69
2022/12/20 05:03:02;;;;;;;35.72;21.13;;;3.80;99.90;;;;;;5032695;28;20045;-70
2022/12/20 05:05:29;;;;;;;33.15;20.33;;;3.80;99.90;;;;;;5032916;28;20056;-68
2022/12/20 05:07:57;;;;;;;36.78;21.13;;;3.70;99.90;;;;;;5032272;28;20079;-68
2022/12/20 05:10:24;;;;;;;33.60;19.85;;;3.70;99.90;;;;;;5032875;28;20049;-72
2022/12/20 05:12:52;;;;;;;33.63;20.95;;;3.70;99.90;;;;;;5032415;28;20340;-70
2022/12/20 05:15:19;;;;;;;35.13;20.55;;;3.60;99.90;;;;;;5032568;28;20045;-69
2022/12/20 05:17:47;;;;;;;37.03;21.40;;;3.60;99.90;;;;;;5032168;28;20508;-70
2022/12/20 05:20:14;;;;;;;41.25;22.27;;;3.60;99.90;;;;;;5032752;28;20496;-69
2022/12/20 05:28:16;;;;;;;36.30;23.00;;;3.60;99.90;;;;;;5032033;28;20042;-69
2022/12/20 05:30:50;;;;;;;37.97;21.67;;;3.70;99.90;;;;;;5032893;28;20064;-71
2022/12/20 05:33:27;;;;;;;34.22;20.40;;;3.60;99.90;;;;;;5016199;28;20057;-69
2022/12/20 05:36:00;;;;;;;36.85;21.92;;;3.60;99.90;;;;;;5032522;28;20436;-70
2022/12/20 05:38:27;;;;;;;33.95;19.98;;;3.60;99.90;;;;;;5032102;28;20041;-70
2022/12/20 05:40:55;;;;;;;39.05;21.65;;;3.70;99.90;;;;;;5032256;28;20057;-70
2022/12/20 05:43:22;;;;;;;34.28;20.27;;;3.60;99.90;;;;;;5031975;28;20052;-70
2022/12/20 05:45:51;;;;;;;36.45;21.08;;;3.50;99.90;;;;;;5035307;28;20052;-70
2022/12/20 05:48:19;;;;;;;35.50;20.15;;;3.50;99.90;;;;;;5035964;28;20120;-70
2022/12/20 05:50:47;;;;;;;53.50;29.42;;;3.60;99.90;;;;;;5036431;28;20378;-70
2022/12/20 05:53:16;;;;;;;39.08;23.10;;;3.70;99.90;;;;;;5018203;28;20045;-70
2022/12/20 05:55:48;;;;;;;40.33;23.15;;;3.70;99.90;;;;;;5036460;28;20037;-71
2022/12/20 05:58:18;;;;;;;79.20;40.92;;;3.60;99.90;;;;;;5018235;28;20060;-70
2022/12/20 06:00:46;;;;;;;199.13;94.85;;;3.70;99.90;;;;;;5036328;28;20038;-70
2022/12/20 06:03:14;;;;;;;67.15;39.40;;;3.60;99.90;;;;;;5036141;28;20038;-72
2022/12/20 06:05:42;;;;;;;36.15;24.63;;;3.70;99.90;;;;;;5036313;28;20049;-69
2022/12/20 06:08:11;;;;;;;37.03;21.90;;;3.60;99.90;;;;;;5036027;28;20099;-69
2022/12/20 06:10:40;;;;;;;33.25;21.08;;;3.40;99.90;;;;;;5035952;28;20048;-69
2022/12/20 06:13:08;;;;;;;30.45;20.33;;;3.50;99.90;;;;;;5035610;28;20088;-68
2022/12/20 06:15:37;;;;;;;36.28;21.63;;;3.40;99.90;;;;;;5036106;28;20073;-70
2022/12/20 06:18:05;;;;;;;36.28;21.17;;;3.30;99.90;;;;;;5035569;28;20046;-69
2022/12/20 06:20:34;;;;;;;36.15;20.80;;;3.30;99.90;;;;;;5035896;28;20508;-70
2022/12/20 06:23:01;;;;;;;37.72;22.15;;;3.30;99.90;;;;;;5035651;28;20042;-69
2022/12/20 06:25:29;;;;;;;38.70;22.17;;;3.40;99.90;;;;;;5035801;28;20121;-69
2022/12/20 06:27:57;;;;;;;39.28;22.40;;;3.40;99.90;;;;;;5035289;28;20080;-73
2022/12/20 06:30:25;;;;;;;34.53;21.77;;;3.40;99.90;;;;;;5035746;28;20076;-69
2022/12/20 06:33:00;;;;;;;36.17;22.23;;;3.40;99.90;;;;;;5035335;28;20127;-70
2022/12/20 06:35:28;;;;;;;37.67;21.33;;;3.40;99.90;;;;;;5034518;28;20037;-70
2022/12/20 06:37:56;;;;;;;37.70;22.08;;;3.40;99.90;;;;;;5035515;28;20041;-72
2022/12/20 06:40:24;;;;;;;40.55;22.45;;;3.50;99.90;;;;;;5035519;28;20504;-70
2022/12/20 06:42:51;;;;;;;36.92;22.15;;;3.60;99.90;;;;;;5035187;28;20041;-72
2022/12/20 06:45:18;;;;;;;42.67;23.35;;;3.60;99.90;;;;;;5033852;28;20049;-69
2022/12/20 06:47:47;;;;;;;36.80;23.33;;;3.50;99.90;;;;;;5033399;28;20100;-70
2022/12/20 06:50:14;;;;;;;40.50;24.42;;;3.50;99.90;;;;;;5033476;28;20045;-70
2022/12/20 06:52:41;;;;;;;40.58;24.40;;;3.50;99.90;;;;;;5033383;28;20441;-71
2022/12/20 06:55:09;;;;;;;43.00;24.75;;;3.50;99.90;;;;;;5033264;28;20048;-69
2022/12/20 06:57:36;;;;;;;39.17;23.60;;;3.60;99.90;;;;;;5031660;28;20045;-69
2022/12/20 07:00:07;;;;;;;42.97;24.73;;;3.50;99.90;;;;;;5033202;28;20520;-71
2022/12/20 07:02:34;;;;;;;39.33;22.75;;;3.50;99.90;;;;;;5035002;28;20503;-71
2022/12/20 07:05:02;;;;;;;41.70;25.10;;;3.60;99.90;;;;;;5017384;28;20757;-72
2022/12/20 07:07:29;;;;;;;41.05;24.20;;;3.50;99.90;;;;;;5035132;28;20092;-73
2022/12/20 07:09:58;;;;;;;41.03;23.25;;;3.50;99.90;;;;;;5034919;28;20048;-73
2022/12/20 07:12:25;;;;;;;41.60;24.60;;;3.50;99.90;;;;;;5017098;28;20111;-72
2022/12/20 07:14:53;;;;;;;43.88;25.55;;;3.60;99.90;;;;;;5035133;28;20495;-69
2022/12/20 07:17:21;;;;;;;41.17;24.80;;;3.60;99.90;;;;;;5035237;28;20037;-69
2022/12/20 07:19:48;;;;;;;42.00;25.13;;;3.60;99.90;;;;;;5034737;28;20413;-71
2022/12/20 07:22:17;;;;;;;44.58;24.08;;;3.60;99.90;;;;;;5034646;28;20044;-69
2022/12/20 07:24:45;;;;;;;44.00;26.13;;;3.70;99.90;;;;;;5034381;28;20042;-69
2022/12/20 07:27:12;;;;;;;40.45;24.55;;;3.70;99.90;;;;;;5035134;28;20041;-70
2022/12/20 07:29:40;;;;;;;43.30;25.10;;;3.70;99.90;;;;;;5034971;28;20107;-71
2022/12/20 07:32:11;;;;;;;43.75;25.08;;;3.80;99.90;;;;;;5034812;28;20033;-70
2022/12/20 07:34:38;;;;;;;39.25;23.73;;;3.80;99.90;;;;;;5034389;28;20041;-71
2022/12/20 07:37:07;;;;;;;36.22;22.83;;;3.80;99.90;;;;;;5034624;28;20121;-70
2022/12/20 07:39:34;;;;;;;40.22;23.85;;;3.90;99.90;;;;;;5034242;28;20071;-69
2022/12/20 07:42:03;;;;;;;38.03;23.35;;;3.90;99.90;;;;;;5034335;28;20115;-71
2022/12/20 07:44:30;;;;;;;38.13;23.15;;;3.90;99.90;;;;;;5034346;28;20037;-69
2022/12/20 07:46:57;;;;;;;42.70;23.30;;;4.00;99.90;;;;;;5034604;28;20037;-71
2022/12/20 07:49:24;;;;;;;37.65;23.60;;;4.00;99.90;;;;;;5034360;28;20042;-71
2022/12/20 07:51:56;;;;;;;38.58;23.20;;;4.00;99.90;;;;;;5034495;28;20413;-71
2022/12/20 07:54:45;;;;;;;42.75;24.65;;;4.20;99.90;;;;;;5032482;28;20053;-69
2022/12/20 07:57:21;;;;;;;41.03;23.60;;;4.40;99.90;;;;;;5034125;28;20041;-71
2022/12/20 07:59:53;;;;;;;40.30;23.92;;;4.40;99.90;;;;;;5033871;28;20052;-70
2022/12/20 08:02:27;;;;;;;38.42;23.98;;;4.40;99.90;;;;;;5034397;28;20046;-70
2022/12/20 08:04:56;;;;;;;46.13;23.92;;;4.50;99.90;;;;;;5033820;28;20467;-70
2022/12/20 08:07:23;;;;;;;42.05;23.92;;;4.50;99.90;;;;;;5040694;28;20385;-69
2022/12/20 08:09:51;;;;;;;38.67;23.98;;;4.40;99.90;;;;;;5041110;28;20544;-69
2022/12/20 08:12:20;;;;;;;39.92;24.38;;;4.40;99.90;;;;;;5041190;28;20040;-69
2022/12/20 08:14:51;;;;;;;41.60;24.70;;;4.40;99.90;;;;;;5041843;28;20401;-70
2022/12/20 08:17:18;;;;;;;47.42;24.48;;;4.50;99.90;;;;;;5042107;28;20134;-70
2022/12/20 08:19:46;;;;;;;44.17;24.40;;;4.70;99.90;;;;;;5038439;28;20463;-71
2022/12/20 08:22:14;;;;;;;41.90;24.58;;;4.70;99.90;;;;;;5042042;28;20184;-70
2022/12/20 08:24:41;;;;;;;40.88;23.75;;;4.60;99.90;;;;;;5043184;28;20049;-71
2022/12/20 08:27:09;;;;;;;45.58;24.65;;;4.50;99.90;;;;;;5040090;28;20041;-70
2022/12/20 08:29:37;;;;;;;42.40;25.38;;;4.70;99.90;;;;;;5041922;28;20503;-70
2022/12/20 08:32:04;;;;;;;42.42;25.33;;;4.80;99.90;;;;;;5043288;28;20526;-70
2022/12/20 08:34:32;;;;;;;42.72;25.25;;;4.70;99.90;;;;;;5043300;28;20392;-69
2022/12/20 08:37:02;;;;;;;;;;;4.80;99.90;;;;;;5031197;28;20072;-70
2022/12/20 08:39:36;;;;;;;42.83;24.02;;;4.80;99.90;;;;;;5038999;28;20319;-69
2022/12/20 08:42:04;;;;;;;48.42;25.08;;;5.00;99.90;;;;;;5041453;28;20103;-69
2022/12/20 08:44:31;;;;;;;39.25;24.92;;;5.00;99.90;;;;;;5043014;28;20037;-69
2022/12/20 08:46:59;;;;;;;44.72;26.67;;;5.00;99.90;;;;;;5041161;28;20037;-71
2022/12/20 08:49:26;;;;;;;48.30;26.42;;;5.00;99.90;;;;;;5041176;28;20392;-69
2022/12/20 08:51:54;;;;;;;42.42;26.05;;;5.00;99.90;;;;;;5020002;28;20041;-71
2022/12/20 08:54:21;;;;;;;44.90;27.23;;;5.00;99.90;;;;;;5041502;28;20045;-69
2022/12/20 08:56:49;;;;;;;46.15;25.40;;;5.10;99.90;;;;;;5040448;28;20046;-69
2022/12/20 08:59:16;;;;;;;46.08;25.25;;;5.10;99.90;;;;;;5024507;28;20056;-68
2022/12/20 09:01:53;;;;;;;43.03;25.48;;;5.00;99.90;;;;;;5042034;28;20038;-70
2022/12/20 09:04:23;;;;;;;45.87;25.33;;;5.00;99.90;;;;;;4987357;28;20060;-71
2022/12/20 09:06:51;;;;;;;45.60;25.58;;;5.00;99.90;;;;;;5032655;28;20064;-70
2022/12/20 09:09:19;;;;;;;47.08;26.67;;;5.10;99.90;;;;;;5015127;28;20516;-69
2022/12/20 09:11:46;;;;;;;43.03;26.80;;;5.00;99.90;;;;;;5015418;28;20096;-70
2022/12/20 09:14:13;;;;;;;45.50;25.52;;;5.10;99.90;;;;;;5011844;28;20493;-70
2022/12/20 09:16:40;;;;;;;44.15;25.58;;;5.20;99.90;;;;;;5013354;28;20378;-71
2022/12/20 09:19:12;;;;;;;43.55;24.23;;;5.30;99.90;;;;;;5012512;28;20052;-71
2022/12/20 09:21:39;;;;;;;44.00;25.05;;;5.50;99.90;;;;;;5012642;28;20042;-71
2022/12/20 09:24:08;;;;;;;42.08;24.23;;;5.60;99.90;;;;;;5012881;28;20041;-71
2022/12/20 09:26:36;;;;;;;43.10;26.50;;;5.60;99.90;;;;;;4979482;28;20054;-69
2022/12/20 09:29:04;;;;;;;42.45;24.52;;;5.70;99.90;;;;;;4995507;28;20042;-70
2022/12/20 09:31:36;;;;;;;39.67;23.52;;;5.60;99.90;;;;;;5011338;28;20038;-70
2022/12/20 09:34:03;;;;;;;42.35;24.27;;;5.70;99.90;;;;;;5029020;28;20083;-66
2022/12/20 09:36:31;;;;;;;46.35;25.20;;;5.70;99.90;;;;;;5031837;28;20033;-69
2022/12/20 09:39:02;;;;;;;39.47;24.03;;;5.90;99.90;;;;;;5031852;28;20096;-72
2022/12/20 09:41:41;;;;;;;45.33;24.52;;;6.00;99.90;;;;;;5016971;28;20038;-72
2022/12/20 09:44:33;;;;;;;37.88;22.73;;;6.10;99.90;;;;;;5032286;28;20798;-70
2022/12/20 09:47:06;;;;;;;46.60;24.73;;;5.90;99.90;;;;;;5012714;28;20386;-68
2022/12/20 09:49:41;;;;;;;40.00;23.55;;;6.10;99.90;;;;;;4996071;28;20046;-71
2022/12/20 09:52:38;;;;;;;38.03;22.98;;;6.40;99.90;;;;;;5031799;28;20103;-70
2022/12/20 09:55:30;;;;;;;38.33;23.25;;;6.50;99.90;;;;;;5031911;28;20037;-71
2022/12/20 09:58:07;;;;;;;37.78;23.35;;;6.60;99.90;;;;;;5030335;28;20049;-70
2022/12/20 10:00:42;;;;;;;40.13;21.90;;;6.80;99.90;;;;;;5030554;28;20124;-70
2022/12/20 10:03:24;;;;;;;34.08;21.00;;;6.70;99.90;;;;;;5015390;28;20552;-70
2022/12/20 10:05:55;;;;;;;34.78;21.10;;;7.00;99.90;;;;;;5031964;28;20068;-70
2022/12/20 10:08:44;;;;;;;34.30;22.48;;;7.00;99.90;;;;;;5032068;28;20042;-70
2022/12/20 10:11:27;;;;;;;35.15;21.50;;;7.00;99.90;;;;;;5029880;28;20054;-71
2022/12/20 10:14:21;;;;;;;;;;;6.90;99.90;;;;;;5032461;28;20049;-70
2022/12/20 10:17:12;;;;;;;29.65;19.90;;;7.00;99.90;;;;;;5030244;28;19927;-72
2022/12/20 10:20:01;;;;;;;38.63;22.17;;;7.10;99.90;;;;;;5030983;28;20040;-72
2022/12/20 10:22:39;;;;;;;33.58;21.92;;;7.00;99.90;;;;;;5031090;28;20055;-69
2022/12/20 10:25:19;;;;;;;35.22;20.85;;;6.90;99.90;;;;;;5030859;28;20049;-71
2022/12/20 10:27:49;;;;;;;35.83;22.08;;;6.90;99.90;;;;;;5039459;28;20056;-70
2022/12/20 10:30:24;;;;;;;33.30;22.05;;;7.00;99.90;;;;;;5004913;28;20455;-72
2022/12/20 10:32:57;;;;;;;38.65;23.27;;;7.20;99.90;;;;;;4982831;28;20397;-70
2022/12/20 10:35:32;;;;;;;41.15;23.25;;;7.40;99.90;;;;;;5020306;28;20387;-70
2022/12/20 10:38:06;;;;;;;37.75;24.40;;;7.60;99.90;;;;;;5035079;28;20073;-71
2022/12/20 10:40:38;;;;;;;41.55;23.77;;;7.60;99.90;;;;;;5029965;28;20096;-70
2022/12/20 10:43:33;;;;;;;34.05;21.33;;;7.70;99.90;;;;;;5034275;28;20037;-71
2022/12/20 10:46:04;;;;;;;28.00;18.05;;;7.80;99.90;;;;;;5031162;28;20049;-71
2022/12/20 10:48:40;;;;;;;31.45;17.45;;;7.80;98.90;;;;;;5035736;28;20041;-72
2022/12/20 10:51:13;;;;;;;29.55;16.98;;;7.80;98.40;;;;;;5036490;28;20049;-70
2022/12/20 10:53:53;;;;;;;27.55;16.15;;;7.60;97.80;;;;;;5035239;28;20041;-72
2022/12/20 10:56:26;;;;;;;24.90;16.23;;;7.80;98.30;;;;;;5034420;28;20064;-72
2022/12/20 10:58:58;;;;;;;28.27;16.42;;;8.40;99.90;;;;;;5017572;28;20050;-74
2022/12/20 11:01:42;;;;;;;23.20;16.40;;;9.10;99.90;;;;;;5029874;28;20053;-73
2022/12/20 11:04:25;;;;;;;25.60;16.73;;;9.20;96.00;;;;;;5031631;28;20037;-72
2022/12/20 11:06:53;;;;;;;22.75;14.77;;;9.60;99.90;;;;;;5016207;28;20041;-72
2022/12/20 11:09:31;;;;;;;22.90;15.07;;;10.20;97.50;;;;;;5034398;28;20041;-71
2022/12/20 11:12:13;;;;;;;22.23;13.82;;;9.80;94.10;;;;;;5043954;28;20138;-70
2022/12/20 11:14:44;;;;;;;25.25;15.52;;;9.90;93.90;;;;;;5025453;28;20395;-71
2022/12/20 11:17:14;;;;;;;19.83;13.95;;;9.80;92.80;;;;;;5031630;28;20049;-72
2022/12/20 11:19:45;;;;;;;21.65;14.32;;;9.90;92.80;;;;;;5034303;28;20397;-72
2022/12/20 11:22:34;;;;;;;23.60;15.23;;;9.90;92.30;;;;;;5033120;28;20500;-73
2022/12/20 11:25:14;;;;;;;23.50;15.18;;;10.00;91.50;;;;;;5033232;28;20540;-73
2022/12/20 11:27:53;;;;;;;20.98;14.32;;;10.30;90.90;;;;;;5013325;28;20038;-73
2022/12/20 11:30:32;;;;;;;21.38;13.68;;;10.50;90.70;;;;;;5013122;28;20037;-73
2022/12/20 11:33:27;;;;;;;21.25;14.30;;;10.70;90.10;;;;;;5031643;28;20042;-72
2022/12/20 11:36:01;;;;;;;22.85;15.35;;;10.80;88.70;;;;;;5031259;28;20034;-72
2022/12/20 11:38:49;;;;;;;20.95;14.20;;;10.60;87.90;;;;;;5013743;28;20052;-72
2022/12/20 11:41:58;;;;;;;24.55;16.92;;;10.80;88.50;;;;;;5031050;28;20083;-72
2022/12/20 11:44:49;;;;;;;26.83;16.92;;;11.10;87.10;;;;;;4952827;29;20553;-70
2022/12/20 11:47:51;;;;;;;25.75;15.90;;;11.30;87.10;;;;;;5032307;28;20061;-72
2022/12/20 11:50:48;;;;;;;29.23;17.27;;;11.30;85.30;;;;;;5034364;28;20420;-72
2022/12/20 11:53:39;;;;;;;24.48;15.98;;;11.40;85.60;;;;;;5034114;28;20473;-73
2022/12/20 11:56:35;;;;;;;;;;;11.40;84.90;;;;;;5034748;28;20042;-70
2022/12/20 11:59:19;;;;;;;28.23;17.30;;;11.50;87.10;;;;;;5019246;28;19920;-72
2022/12/20 12:01:59;;;;;;;29.17;15.50;;;11.70;85.50;;;;;;5033778;28;20053;-72
2022/12/20 12:04:30;;;;;;;24.67;14.82;;;11.60;83.80;;;;;;5034197;28;20539;-72
2022/12/20 12:07:12;;;;;;;27.27;15.98;;;11.70;83.50;;;;;;5033864;28;20052;-73
2022/12/20 12:09:53;;;;;;;24.08;15.25;;;11.80;82.90;;;;;;5033993;28;20037;-71
2022/12/20 12:12:27;;;;;;;24.10;15.23;;;11.90;81.70;;;;;;5033707;28;20042;-73
2022/12/20 12:15:15;;;;;;;23.75;14.57;;;11.60;80.50;;;;;;5031650;28;20075;-72
2022/12/20 12:18:04;;;;;;;22.20;13.75;;;11.50;80.80;;;;;;5031835;28;20424;-72
2022/12/20 12:20:47;;;;;;;20.17;14.00;;;11.50;81.10;;;;;;5031770;28;20038;-72
2022/12/20 12:23:42;;;;;;;22.23;13.80;;;11.80;80.90;;;;;;5031978;28;20042;-73
2022/12/20 12:26:29;;;;;;;21.08;13.00;;;11.30;80.50;;;;;;5031968;28;20045;-73
2022/12/20 12:29:19;;;;;;;21.30;12.13;;;11.40;80.40;;;;;;5015077;28;20056;-73
2022/12/20 12:31:49;;;;;;;23.23;13.75;;;11.70;80.60;;;;;;5016069;28;20052;-70
2022/12/20 12:34:23;;;;;;;;;;;11.80;80.20;;;;;;5033759;28;20568;-73
2022/12/20 12:37:27;;;;;;;21.48;13.23;;;12.10;79.80;;;;;;5033589;28;19921;-71
2022/12/20 12:39:59;;;;;;;16.23;11.30;;;12.20;80.00;;;;;;5016013;28;20481;-73
2022/12/20 12:42:38;;;;;;;18.63;12.50;;;12.30;78.50;;;;;;5032831;28;20053;-71
2022/12/20 12:45:26;;;;;;;21.10;13.70;;;12.20;77.40;;;;;;5033395;28;20045;-72
2022/12/20 12:48:11;;;;;;;18.98;11.90;;;12.70;78.40;;;;;;5032961;28;20064;-74
2022/12/20 12:50:45;;;;;;;16.42;10.85;;;12.80;75.70;;;;;;5033278;28;20392;-71
2022/12/20 12:53:31;;;;;;;15.95;10.27;;;12.50;76.10;;;;;;5032565;28;20505;-73
2022/12/20 12:56:18;;;;;;;15.52;10.43;;;12.50;75.40;;;;;;5033196;28;20117;-73
2022/12/20 12:59:05;;;;;;;15.90;10.38;;;12.70;74.70;;;;;;5032892;28;20136;-73
2022/12/20 13:01:54;;;;;;;13.73;9.77;;;13.00;74.50;;;;;;5032670;28;20087;-73
2022/12/20 13:04:28;;;;;;;15.88;10.25;;;12.80;73.70;;;;;;5032920;28;20119;-72
2022/12/20 13:07:02;;;;;;;14.70;10.02;;;12.60;73.90;;;;;;5033007;28;20473;-71
2022/12/20 13:09:29;;;;;;;17.70;10.82;;;12.30;74.20;;;;;;5015048;28;20503;-72
2022/12/20 13:11:57;;;;;;;15.25;9.52;;;12.30;74.50;;;;;;5032817;28;20043;-72
2022/12/20 13:14:29;;;;;;;14.20;9.60;;;12.30;74.10;;;;;;5032887;28;20076;-72
2022/12/20 13:17:05;;;;;;;18.60;11.82;;;12.20;74.30;;;;;;5032747;28;20123;-73
2022/12/20 13:19:50;;;;;;;17.15;12.07;;;12.20;74.90;;;;;;5032624;28;20500;-72